ウダーチヌイ の空港の天気 - METARとTAF

Polyarny ( UERP / PYJ ) - ロシア ウダーチヌイ
飛行場実況気象(Metar)
観測時間08/26 04:00 YAKT (08/25 19:00 UTC)
風向・風速南西 2m/s
視程10km以上
天気現象
なし
気温14℃
湿度51%
気圧1012hPa
METARUERP 251900Z 23002MPS CAVOK 14/04 Q1012 NOSIG RMK QFE715
過去の天気等 Google飛行場航空写真 Wunderground天気予報

過去48時間のMETAR

飛行場予報(TAF)
発表時間: 8/26 02:00 YAKT (8/25 17:00 UTC)
予報対象時間: 26日3時 YAKT ~ 27日3時 YAKT
風向・風速不定 1m/s
視程10km以上
全天の4割程度の雲 雲底高度 910m
全天の8割程度の雲 雲底高度 3050m
TAF UERP 251700Z 2518/2618 VRB01MPS 9999 SCT030 BKN100